createdAt,value
2018-08-03T00:00:02.905Z,3.4
2018-08-03T00:00:15.397Z,3.4
2018-08-03T00:00:27.851Z,3.4
2018-08-03T00:00:40.283Z,3.4
2018-08-03T00:00:52.747Z,3.4
2018-08-03T00:01:05.168Z,3.4
2018-08-03T00:01:17.594Z,3.4
2018-08-03T00:01:30.056Z,3.4
2018-08-03T00:01:42.476Z,3.4
2018-08-03T00:01:54.891Z,3.4
2018-08-03T00:02:07.314Z,3.4
2018-08-03T00:02:19.814Z,3.4
2018-08-03T00:02:32.222Z,3.4
2018-08-03T00:02:44.639Z,3.4
2018-08-03T00:02:57.077Z,3.4
2018-08-03T00:03:09.478Z,3.4
2018-08-03T00:03:21.891Z,3.4
2018-08-03T00:03:34.289Z,3.4
2018-08-03T00:03:46.703Z,3.4
2018-08-03T00:03:59.109Z,3.4
2018-08-03T00:04:11.840Z,3.4
2018-08-03T00:04:24.252Z,3.4
2018-08-03T00:04:36.692Z,3.4
2018-08-03T00:04:49.115Z,3.4
2018-08-03T00:05:01.525Z,3.4
2018-08-03T00:05:13.935Z,3.4
2018-08-03T00:05:26.370Z,3.4
2018-08-03T00:05:38.857Z,3.4
2018-08-03T00:05:51.285Z,3.4
2018-08-03T00:06:03.719Z,3.4
2018-08-03T00:06:16.149Z,2.67
2018-08-03T00:06:28.693Z,2.67
2018-08-03T00:06:41.126Z,2.67
2018-08-03T00:06:53.540Z,2.67
2018-08-03T00:07:05.964Z,2.67
2018-08-03T00:07:18.374Z,2.67
2018-08-03T00:07:30.784Z,2.67
2018-08-03T00:07:43.189Z,2.67
2018-08-03T00:07:55.631Z,2.67
2018-08-03T00:08:08.086Z,2.67
2018-08-03T00:08:20.543Z,2.67
2018-08-03T00:08:32.944Z,2.67
2018-08-03T00:08:45.389Z,2.67
2018-08-03T00:08:57.796Z,2.67
2018-08-03T00:09:10.223Z,2.67
2018-08-03T00:09:22.777Z,2.67
2018-08-03T00:09:35.162Z,2.67
2018-08-03T00:09:47.569Z,2.67
2018-08-03T00:09:59.977Z,2.67
2018-08-03T00:10:12.392Z,2.67
2018-08-03T00:10:24.861Z,2.67
2018-08-03T00:10:37.313Z,2.67
2018-08-03T00:10:49.760Z,2.67
2018-08-03T00:11:02.161Z,2.67
2018-08-03T00:11:14.573Z,2.67
2018-08-03T00:11:26.986Z,2.67
2018-08-03T00:11:39.387Z,2.67
2018-08-03T00:11:51.826Z,2.67
2018-08-03T00:12:04.251Z,2.67
2018-08-03T00:12:16.663Z,2.67
2018-08-03T00:12:29.082Z,2.67
2018-08-03T00:12:41.512Z,2.67
2018-08-03T00:12:53.917Z,2.67
2018-08-03T00:13:06.326Z,2.67
2018-08-03T00:13:18.742Z,2.67
2018-08-03T00:13:31.156Z,2.67
2018-08-03T00:13:43.592Z,2.67
2018-08-03T00:13:56.147Z,2.67
2018-08-03T00:14:08.556Z,2.67
2018-08-03T00:14:21.012Z,2.67
2018-08-03T00:14:33.431Z,2.67
2018-08-03T00:14:45.844Z,2.67
2018-08-03T00:14:58.397Z,2.67
2018-08-03T00:15:10.826Z,2.67
2018-08-03T00:15:23.271Z,2.67
2018-08-03T00:15:35.726Z,2.67
2018-08-03T00:15:48.180Z,2.67
2018-08-03T00:16:00.722Z,2.67
2018-08-03T00:16:13.131Z,2.67
2018-08-03T00:16:25.722Z,3.17
2018-08-03T00:16:38.148Z,3.17
2018-08-03T00:16:50.532Z,3.17
2018-08-03T00:17:02.958Z,3.17
2018-08-03T00:17:15.348Z,3.17
2018-08-03T00:17:27.741Z,3.17
2018-08-03T00:17:40.133Z,3.17
2018-08-03T00:17:52.537Z,3.17
2018-08-03T00:18:04.940Z,3.17
2018-08-03T00:18:17.355Z,3.17
2018-08-03T00:18:29.750Z,3.17
2018-08-03T00:18:42.377Z,3.17
2018-08-03T00:18:54.783Z,3.17
2018-08-03T00:19:07.191Z,3.17
2018-08-03T00:19:19.651Z,3.17
2018-08-03T00:19:32.232Z,3.17
2018-08-03T00:19:44.654Z,3.17
2018-08-03T00:19:57.068Z,3.17
2018-08-03T00:20:09.497Z,3.17
2018-08-03T00:20:21.934Z,3.17
2018-08-03T00:20:34.346Z,3.17
2018-08-03T00:20:46.735Z,3.17
2018-08-03T00:20:59.160Z,3.17
2018-08-03T00:21:11.715Z,3.17
2018-08-03T00:21:24.139Z,3.17
2018-08-03T00:21:36.702Z,3.17
2018-08-03T00:21:49.155Z,3.17
2018-08-03T00:22:01.584Z,3.17
2018-08-03T00:22:13.994Z,3.17
2018-08-03T00:22:26.406Z,3.17
2018-08-03T00:22:38.824Z,3.17
2018-08-03T00:22:51.231Z,3.17
2018-08-03T00:23:03.674Z,3.17
2018-08-03T00:23:16.074Z,3.17
2018-08-03T00:23:28.481Z,3.17
2018-08-03T00:23:40.875Z,3.17
2018-08-03T00:23:53.294Z,3.17
2018-08-03T00:24:05.711Z,3.17
2018-08-03T00:24:18.122Z,3.17
2018-08-03T00:24:30.533Z,3.17
2018-08-03T00:24:42.925Z,3.17
2018-08-03T00:24:55.349Z,3.17
2018-08-03T00:25:07.751Z,3.17
2018-08-03T00:25:20.201Z,3.17
2018-08-03T00:25:32.600Z,3.17
2018-08-03T00:25:44.997Z,3.17
2018-08-03T00:25:57.411Z,3.17
2018-08-03T00:26:09.833Z,3.17
2018-08-03T00:26:22.242Z,2.95
2018-08-03T00:26:34.663Z,2.95
2018-08-03T00:26:47.146Z,2.95
2018-08-03T00:26:59.543Z,2.95
2018-08-03T00:27:12.010Z,2.95
2018-08-03T00:27:24.431Z,2.95
2018-08-03T00:27:36.859Z,2.95
2018-08-03T00:27:49.282Z,2.95
2018-08-03T00:28:01.690Z,2.95
2018-08-03T00:28:14.121Z,2.95
2018-08-03T00:28:26.548Z,2.95
2018-08-03T00:28:38.934Z,2.95
2018-08-03T00:28:51.412Z,2.95
2018-08-03T00:29:03.828Z,2.95
2018-08-03T00:29:16.245Z,2.95
2018-08-03T00:29:28.687Z,2.95
2018-08-03T00:29:41.185Z,2.95
2018-08-03T00:29:53.575Z,2.95
2018-08-03T00:30:05.993Z,2.95
2018-08-03T00:30:18.415Z,2.95
2018-08-03T00:30:30.852Z,2.95
2018-08-03T00:30:43.251Z,2.95
2018-08-03T00:30:55.639Z,2.95
2018-08-03T00:31:08.188Z,2.95
2018-08-03T00:31:20.624Z,2.95
2018-08-03T00:31:33.039Z,2.95
2018-08-03T00:31:45.445Z,2.95
2018-08-03T00:31:57.880Z,2.95
2018-08-03T00:32:10.273Z,2.95
2018-08-03T00:32:22.692Z,2.95
2018-08-03T00:32:35.097Z,2.95
2018-08-03T00:32:47.605Z,2.95
2018-08-03T00:33:00.077Z,2.95
2018-08-03T00:33:12.500Z,2.95
2018-08-03T00:33:24.911Z,2.95
2018-08-03T00:33:37.315Z,2.95
2018-08-03T00:33:49.715Z,2.95
2018-08-03T00:34:02.132Z,2.95
2018-08-03T00:34:14.625Z,2.95
2018-08-03T00:34:27.029Z,2.95
2018-08-03T00:34:39.426Z,2.95
2018-08-03T00:34:51.838Z,2.95
2018-08-03T00:35:04.262Z,2.95
2018-08-03T00:35:16.655Z,2.95
2018-08-03T00:35:29.049Z,2.95
2018-08-03T00:35:41.490Z,2.95
2018-08-03T00:35:53.905Z,2.95
2018-08-03T00:36:06.357Z,2.95
2018-08-03T00:36:18.771Z,3.4
2018-08-03T00:36:31.161Z,3.4
2018-08-03T00:36:43.565Z,3.4
2018-08-03T00:36:55.996Z,3.4
2018-08-03T00:37:08.427Z,3.4
2018-08-03T00:37:20.820Z,3.4
2018-08-03T00:37:33.236Z,3.4
2018-08-03T00:37:45.662Z,3.4
2018-08-03T00:37:58.055Z,3.4
2018-08-03T00:38:10.454Z,3.4
2018-08-03T00:38:22.866Z,3.4
2018-08-03T00:38:35.290Z,3.4
2018-08-03T00:38:47.698Z,3.4
2018-08-03T00:39:00.099Z,3.4
2018-08-03T00:39:12.515Z,3.4
2018-08-03T00:39:24.916Z,3.4
2018-08-03T00:39:37.435Z,3.4
2018-08-03T00:39:49.863Z,3.4
2018-08-03T00:40:02.284Z,3.4
2018-08-03T00:40:14.700Z,3.4
2018-08-03T00:40:27.092Z,3.4
2018-08-03T00:40:39.499Z,3.4
2018-08-03T00:40:51.909Z,3.4
2018-08-03T00:41:04.323Z,3.4
2018-08-03T00:41:16.760Z,3.4
2018-08-03T00:41:29.160Z,3.4
2018-08-03T00:41:41.592Z,3.4
2018-08-03T00:41:54.045Z,3.4
2018-08-03T00:42:06.452Z,3.4
2018-08-03T00:42:18.893Z,3.4
2018-08-03T00:42:31.315Z,3.4
2018-08-03T00:42:43.719Z,3.4
2018-08-03T00:42:56.125Z,3.4
2018-08-03T00:43:08.530Z,3.4
2018-08-03T00:43:20.932Z,3.4
2018-08-03T00:43:33.371Z,3.4
2018-08-03T00:43:45.778Z,3.4
2018-08-03T00:43:58.230Z,3.4
2018-08-03T00:44:10.718Z,3.4
2018-08-03T00:44:23.182Z,3.4
2018-08-03T00:44:35.673Z,3.4
2018-08-03T00:44:48.113Z,3.4
2018-08-03T00:45:00.572Z,3.4
2018-08-03T00:45:13.026Z,3.4
2018-08-03T00:45:25.471Z,3.4
2018-08-03T00:45:37.909Z,3.4
2018-08-03T00:45:50.322Z,3.4
2018-08-03T00:46:02.727Z,3.4
2018-08-03T00:46:15.133Z,3.4
2018-08-03T00:46:27.556Z,4.32
2018-08-03T00:46:39.971Z,4.32
2018-08-03T00:46:52.381Z,4.32
2018-08-03T00:47:04.769Z,4.32
2018-08-03T00:47:17.164Z,4.32
2018-08-03T00:47:29.610Z,4.32
2018-08-03T00:47:42.032Z,4.32
2018-08-03T00:47:54.590Z,4.32
2018-08-03T00:48:07.014Z,4.32
2018-08-03T00:48:19.441Z,4.32
2018-08-03T00:48:31.839Z,4.32
2018-08-03T00:48:44.232Z,4.32
2018-08-03T00:48:56.870Z,4.32
2018-08-03T00:49:09.268Z,4.32
2018-08-03T00:49:21.701Z,4.32
2018-08-03T00:49:34.139Z,4.32
2018-08-03T00:49:46.609Z,4.32
2018-08-03T00:49:59.145Z,4.32
2018-08-03T00:50:11.551Z,4.32
2018-08-03T00:50:23.971Z,4.32
2018-08-03T00:50:36.401Z,4.32
2018-08-03T00:50:48.811Z,4.32
2018-08-03T00:51:01.217Z,4.32
2018-08-03T00:51:13.786Z,4.32
2018-08-03T00:51:26.310Z,4.32
2018-08-03T00:51:38.711Z,4.32
2018-08-03T00:51:51.114Z,4.32
2018-08-03T00:52:03.504Z,4.32
2018-08-03T00:52:15.903Z,4.32
2018-08-03T00:52:28.315Z,4.32
2018-08-03T00:52:40.725Z,4.32
2018-08-03T00:52:53.120Z,4.32
2018-08-03T00:53:05.529Z,4.32
2018-08-03T00:53:17.950Z,4.32
2018-08-03T00:53:30.356Z,4.32
2018-08-03T00:53:42.754Z,4.32
2018-08-03T00:53:55.170Z,4.32
2018-08-03T00:54:07.582Z,4.32
2018-08-03T00:54:19.961Z,4.32
2018-08-03T00:54:32.340Z,4.32
2018-08-03T00:54:44.770Z,4.32
2018-08-03T00:54:57.172Z,4.32
2018-08-03T00:55:09.621Z,4.32
2018-08-03T00:55:22.056Z,4.32
2018-08-03T00:55:34.475Z,4.32
2018-08-03T00:55:46.928Z,4.32
2018-08-03T00:55:59.355Z,4.32
2018-08-03T00:56:11.761Z,4.32
2018-08-03T00:56:25.055Z,3.35
2018-08-03T00:56:37.470Z,3.35
2018-08-03T00:56:49.877Z,3.35
2018-08-03T00:57:02.289Z,3.35
2018-08-03T00:57:14.688Z,3.35
2018-08-03T00:57:27.083Z,3.35
2018-08-03T00:57:39.499Z,3.35
2018-08-03T00:57:51.900Z,3.35
2018-08-03T00:58:04.315Z,3.35
2018-08-03T00:58:16.708Z,3.35
2018-08-03T00:58:29.136Z,3.35
2018-08-03T00:58:41.541Z,3.35
2018-08-03T00:58:53.960Z,3.35
2018-08-03T00:59:06.391Z,3.35
2018-08-03T00:59:18.812Z,3.35
2018-08-03T00:59:31.389Z,3.35
2018-08-03T00:59:43.801Z,3.35
2018-08-03T00:59:56.233Z,3.35
2018-08-03T01:00:08.657Z,3.35
2018-08-03T01:00:21.067Z,3.35
2018-08-03T01:00:33.480Z,3.35
2018-08-03T01:00:45.924Z,3.35
2018-08-03T01:00:58.356Z,3.35
2018-08-03T01:01:10.950Z,3.35
2018-08-03T01:01:23.398Z,3.35
2018-08-03T01:01:35.825Z,3.35
2018-08-03T01:01:48.297Z,3.35
2018-08-03T01:02:00.720Z,3.35
2018-08-03T01:02:13.173Z,3.35
2018-08-03T01:02:25.737Z,3.35
2018-08-03T01:02:38.194Z,3.35
2018-08-03T01:02:50.628Z,3.35
2018-08-03T01:03:03.050Z,3.35
2018-08-03T01:03:15.452Z,3.35
2018-08-03T01:03:27.869Z,3.35
2018-08-03T01:03:40.273Z,3.35
2018-08-03T01:03:52.676Z,3.35
2018-08-03T01:04:05.103Z,3.35
2018-08-03T01:04:17.550Z,3.35
2018-08-03T01:04:30.054Z,3.35
2018-08-03T01:04:42.498Z,3.35
2018-08-03T01:04:54.951Z,3.35
2018-08-03T01:05:07.384Z,3.35
2018-08-03T01:05:19.834Z,3.35
2018-08-03T01:05:32.288Z,3.35
2018-08-03T01:05:44.704Z,3.35
2018-08-03T01:05:57.134Z,3.35
2018-08-03T01:06:09.540Z,3.35
2018-08-03T01:06:22.017Z,5.38
2018-08-03T01:06:34.451Z,5.38
2018-08-03T01:06:46.887Z,5.38
2018-08-03T01:06:59.312Z,5.38
2018-08-03T01:07:11.710Z,5.38
2018-08-03T01:07:24.189Z,5.38
2018-08-03T01:07:36.592Z,5.38
2018-08-03T01:07:48.981Z,5.38
2018-08-03T01:08:01.399Z,5.38
2018-08-03T01:08:13.810Z,5.38
2018-08-03T01:08:26.214Z,5.38
2018-08-03T01:08:38.672Z,5.38
2018-08-03T01:08:51.080Z,5.38
2018-08-03T01:09:03.521Z,5.38
2018-08-03T01:09:16.076Z,5.38
2018-08-03T01:09:28.493Z,5.38
2018-08-03T01:09:40.908Z,5.38
2018-08-03T01:09:53.301Z,5.38
2018-08-03T01:10:05.733Z,5.38
2018-08-03T01:10:18.151Z,5.38
2018-08-03T01:10:30.549Z,5.38
2018-08-03T01:10:42.966Z,5.38
2018-08-03T01:10:55.381Z,5.38
2018-08-03T01:11:07.832Z,5.38
2018-08-03T01:11:20.230Z,5.38
2018-08-03T01:11:32.632Z,5.38
2018-08-03T01:11:45.028Z,5.38
2018-08-03T01:11:57.419Z,5.38
2018-08-03T01:12:09.822Z,5.38
2018-08-03T01:12:22.208Z,5.38
2018-08-03T01:12:34.622Z,5.38
2018-08-03T01:12:47.047Z,5.38
2018-08-03T01:12:59.430Z,5.38
2018-08-03T01:13:11.909Z,5.38
2018-08-03T01:13:24.363Z,5.38
2018-08-03T01:13:36.767Z,5.38
2018-08-03T01:13:49.176Z,5.38
2018-08-03T01:14:01.565Z,5.38
2018-08-03T01:14:14.003Z,5.38
2018-08-03T01:14:26.412Z,5.38
2018-08-03T01:14:38.954Z,5.38
2018-08-03T01:14:51.341Z,5.38
2018-08-03T01:15:03.855Z,5.38
2018-08-03T01:15:16.259Z,5.38
2018-08-03T01:15:28.653Z,5.38
2018-08-03T01:15:41.052Z,5.38
2018-08-03T01:15:53.496Z,5.38
2018-08-03T01:16:05.901Z,5.38
2018-08-03T01:16:18.305Z,4.82
2018-08-03T01:16:30.709Z,4.82
2018-08-03T01:16:43.173Z,4.82
2018-08-03T01:16:55.604Z,4.82
2018-08-03T01:17:08.012Z,4.82
2018-08-03T01:17:20.431Z,4.82
2018-08-03T01:17:32.840Z,4.82
2018-08-03T01:17:45.235Z,4.82
2018-08-03T01:17:57.643Z,4.82
2018-08-03T01:18:10.061Z,4.82
2018-08-03T01:18:22.476Z,4.82
2018-08-03T01:18:34.899Z,4.82
2018-08-03T01:18:47.331Z,4.82
2018-08-03T01:18:59.733Z,4.82
2018-08-03T01:19:12.317Z,4.82
2018-08-03T01:19:24.925Z,4.82
2018-08-03T01:19:37.566Z,4.82
2018-08-03T01:19:49.993Z,4.82
2018-08-03T01:20:02.414Z,4.82
2018-08-03T01:20:14.814Z,4.82
2018-08-03T01:20:27.208Z,4.82
2018-08-03T01:20:39.635Z,4.82
2018-08-03T01:20:52.043Z,4.82
2018-08-03T01:21:04.611Z,4.82
2018-08-03T01:21:17.009Z,4.82
2018-08-03T01:21:29.409Z,4.82
2018-08-03T01:21:41.813Z,4.82
2018-08-03T01:21:54.414Z,4.82
2018-08-03T01:22:06.815Z,4.82
2018-08-03T01:22:19.229Z,4.82
2018-08-03T01:22:31.632Z,4.82
2018-08-03T01:22:44.026Z,4.82
2018-08-03T01:22:56.421Z,4.82
2018-08-03T01:23:08.829Z,4.82
2018-08-03T01:23:21.241Z,4.82
2018-08-03T01:23:33.634Z,4.82
2018-08-03T01:23:46.028Z,4.82
2018-08-03T01:23:58.491Z,4.82
2018-08-03T01:24:10.895Z,4.82
2018-08-03T01:24:23.343Z,4.82
2018-08-03T01:24:35.786Z,4.82
2018-08-03T01:24:48.189Z,4.82
2018-08-03T01:25:00.584Z,4.82
2018-08-03T01:25:13.140Z,4.82
2018-08-03T01:25:25.563Z,4.82
2018-08-03T01:25:37.976Z,4.82
2018-08-03T01:25:50.387Z,4.82
2018-08-03T01:26:02.778Z,4.82
2018-08-03T01:26:15.184Z,4.82
2018-08-03T01:26:27.613Z,4.02
2018-08-03T01:26:40.009Z,4.02
2018-08-03T01:26:52.400Z,4.02
2018-08-03T01:27:04.792Z,4.02
2018-08-03T01:27:17.201Z,4.02
2018-08-03T01:27:29.663Z,4.02
2018-08-03T01:27:42.064Z,4.02
2018-08-03T01:27:54.457Z,4.02
2018-08-03T01:28:06.885Z,4.02
2018-08-03T01:28:19.317Z,4.02
2018-08-03T01:28:31.722Z,4.02
2018-08-03T01:28:44.390Z,4.02
2018-08-03T01:28:56.812Z,4.02
2018-08-03T01:29:09.213Z,4.02
2018-08-03T01:29:21.623Z,4.02
2018-08-03T01:29:34.059Z,4.02
2018-08-03T01:29:46.586Z,4.02
2018-08-03T01:29:59.039Z,4.02
2018-08-03T01:30:11.465Z,4.02
2018-08-03T01:30:23.865Z,4.02
2018-08-03T01:30:36.273Z,4.02
2018-08-03T01:30:48.675Z,4.02
2018-08-03T01:31:01.077Z,4.02
2018-08-03T01:31:13.497Z,4.02
2018-08-03T01:31:25.908Z,4.02
2018-08-03T01:31:38.361Z,4.02
2018-08-03T01:31:50.771Z,4.02
2018-08-03T01:32:03.181Z,4.02
2018-08-03T01:32:15.584Z,4.02
2018-08-03T01:32:27.974Z,4.02
2018-08-03T01:32:40.457Z,4.02
2018-08-03T01:32:52.869Z,4.02
2018-08-03T01:33:05.297Z,4.02
2018-08-03T01:33:17.723Z,4.02
2018-08-03T01:33:30.143Z,4.02
2018-08-03T01:33:42.559Z,4.02
2018-08-03T01:33:54.960Z,4.02
2018-08-03T01:34:07.409Z,4.02
2018-08-03T01:34:19.821Z,4.02
2018-08-03T01:34:32.221Z,4.02
2018-08-03T01:34:44.644Z,4.02
2018-08-03T01:34:57.051Z,4.02
2018-08-03T01:35:09.463Z,4.02
2018-08-03T01:35:21.969Z,4.02
2018-08-03T01:35:34.393Z,4.02
2018-08-03T01:35:46.836Z,4.02
2018-08-03T01:35:59.235Z,4.02
2018-08-03T01:36:11.659Z,4.02
2018-08-03T01:36:24.103Z,4.08
2018-08-03T01:36:36.497Z,4.08
2018-08-03T01:36:48.935Z,4.08
2018-08-03T01:37:01.357Z,4.08
2018-08-03T01:37:13.779Z,4.08
2018-08-03T01:37:26.178Z,4.08
2018-08-03T01:37:38.570Z,4.08
2018-08-03T01:37:51.378Z,4.08
2018-08-03T01:38:04.515Z,4.08
2018-08-03T01:38:16.926Z,4.08
2018-08-03T01:38:29.345Z,4.08
2018-08-03T01:38:41.750Z,4.08
2018-08-03T01:38:54.172Z,4.08
2018-08-03T01:39:06.562Z,4.08
2018-08-03T01:39:18.984Z,4.08
2018-08-03T01:39:31.650Z,4.08
2018-08-03T01:39:44.095Z,4.08
2018-08-03T01:39:56.534Z,4.08
2018-08-03T01:40:08.944Z,4.08
2018-08-03T01:40:21.362Z,4.08
2018-08-03T01:40:33.779Z,4.08
2018-08-03T01:40:46.223Z,4.08
2018-08-03T01:40:58.665Z,4.08
2018-08-03T01:41:11.088Z,4.08
2018-08-03T01:41:23.496Z,4.08
2018-08-03T01:41:35.892Z,4.08
2018-08-03T01:41:48.296Z,4.08
2018-08-03T01:42:00.746Z,4.08
2018-08-03T01:42:13.145Z,4.08
2018-08-03T01:42:25.552Z,4.08
2018-08-03T01:42:37.958Z,4.08
2018-08-03T01:42:50.368Z,4.08
2018-08-03T01:43:02.809Z,4.08
2018-08-03T01:43:15.233Z,4.08
2018-08-03T01:43:27.682Z,4.08
2018-08-03T01:43:40.081Z,4.08
2018-08-03T01:43:52.504Z,4.08
2018-08-03T01:44:04.963Z,4.08
2018-08-03T01:44:17.373Z,4.08
2018-08-03T01:44:29.770Z,4.08
2018-08-03T01:44:42.205Z,4.08
2018-08-03T01:44:54.608Z,4.08
2018-08-03T01:45:07.029Z,4.08
2018-08-03T01:45:19.453Z,4.08
2018-08-03T01:45:32.024Z,4.08
2018-08-03T01:45:44.437Z,4.08
2018-08-03T01:45:56.845Z,4.08
2018-08-03T01:46:09.258Z,4.08
2018-08-03T01:46:21.685Z,3.42
2018-08-03T01:46:34.080Z,3.42
2018-08-03T01:46:46.483Z,3.42
2018-08-03T01:46:58.895Z,3.42
2018-08-03T01:47:11.301Z,3.42
2018-08-03T01:47:23.693Z,3.42
2018-08-03T01:47:36.077Z,3.42
2018-08-03T01:47:48.490Z,3.42
2018-08-03T01:48:00.892Z,3.42
2018-08-03T01:48:13.305Z,3.42
2018-08-03T01:48:25.726Z,3.42
2018-08-03T01:48:38.204Z,3.42
2018-08-03T01:48:50.613Z,3.42
2018-08-03T01:49:03.095Z,3.42
2018-08-03T01:49:15.499Z,3.42
2018-08-03T01:49:27.945Z,3.42
2018-08-03T01:49:40.367Z,3.42
2018-08-03T01:49:52.779Z,3.42
2018-08-03T01:50:05.400Z,3.42
2018-08-03T01:50:17.819Z,3.42
2018-08-03T01:50:30.241Z,3.42
2018-08-03T01:50:42.655Z,3.42
2018-08-03T01:50:55.067Z,3.42
2018-08-03T01:51:07.635Z,3.42
2018-08-03T01:51:20.045Z,3.42
2018-08-03T01:51:32.526Z,3.42
2018-08-03T01:51:44.919Z,3.42
2018-08-03T01:51:57.315Z,3.42
2018-08-03T01:52:09.775Z,3.42
2018-08-03T01:52:22.155Z,3.42
2018-08-03T01:52:34.569Z,3.42
2018-08-03T01:52:47.002Z,3.42
2018-08-03T01:52:59.404Z,3.42
2018-08-03T01:53:11.809Z,3.42
2018-08-03T01:53:24.202Z,3.42
2018-08-03T01:53:36.646Z,3.42
2018-08-03T01:53:49.042Z,3.42
2018-08-03T01:54:01.451Z,3.42
2018-08-03T01:54:13.871Z,3.42
2018-08-03T01:54:26.299Z,3.42
2018-08-03T01:54:38.745Z,3.42
2018-08-03T01:54:51.165Z,3.42
2018-08-03T01:55:03.576Z,3.42
2018-08-03T01:55:15.989Z,3.42
2018-08-03T01:55:28.408Z,3.42
2018-08-03T01:55:40.823Z,3.42
2018-08-03T01:55:53.929Z,3.42
2018-08-03T01:56:06.324Z,3.42
2018-08-03T01:56:18.722Z,3.42
2018-08-03T01:56:31.141Z,3.64
2018-08-03T01:56:43.641Z,3.64
2018-08-03T01:56:56.042Z,3.64
2018-08-03T01:57:08.470Z,3.64
2018-08-03T01:57:20.937Z,3.64
2018-08-03T01:57:33.343Z,3.64
2018-08-03T01:57:45.773Z,3.64
2018-08-03T01:57:58.176Z,3.64
2018-08-03T01:58:10.569Z,3.64
2018-08-03T01:58:22.987Z,3.64
2018-08-03T01:58:35.379Z,3.64
2018-08-03T01:58:47.824Z,3.64
2018-08-03T01:59:00.423Z,3.64
2018-08-03T01:59:13.772Z,3.64
2018-08-03T01:59:26.582Z,3.64
2018-08-03T01:59:39.063Z,3.64
2018-08-03T01:59:51.485Z,3.64
2018-08-03T02:00:03.914Z,3.64
2018-08-03T02:00:16.332Z,3.64
2018-08-03T02:00:28.780Z,3.64
2018-08-03T02:00:41.218Z,3.64
2018-08-03T02:00:53.685Z,3.64
2018-08-03T02:01:06.094Z,3.64
2018-08-03T02:01:18.502Z,3.64
2018-08-03T02:01:30.923Z,3.64
2018-08-03T02:01:43.365Z,3.64
2018-08-03T02:01:55.782Z,3.64
2018-08-03T02:02:08.212Z,3.64
2018-08-03T02:02:20.684Z,3.64
2018-08-03T02:02:33.121Z,3.64
2018-08-03T02:02:45.534Z,3.64
2018-08-03T02:02:57.947Z,3.64
2018-08-03T02:03:10.445Z,3.64
2018-08-03T02:03:23.596Z,3.64
2018-08-03T02:03:36.129Z,3.64
2018-08-03T02:03:48.533Z,3.64
2018-08-03T02:04:00.936Z,3.64
2018-08-03T02:04:13.350Z,3.64
2018-08-03T02:04:25.785Z,3.64
2018-08-03T02:04:38.194Z,3.64
2018-08-03T02:04:50.594Z,3.64
2018-08-03T02:05:03.015Z,3.64
2018-08-03T02:05:15.443Z,3.64
2018-08-03T02:05:27.851Z,3.64
2018-08-03T02:05:40.262Z,3.64
2018-08-03T02:05:52.682Z,3.64
2018-08-03T02:06:05.062Z,3.64
2018-08-03T02:06:17.461Z,3.64
2018-08-03T02:06:29.876Z,2.78
2018-08-03T02:06:42.277Z,2.78
2018-08-03T02:06:54.690Z,2.78
2018-08-03T02:07:07.127Z,2.78
2018-08-03T02:07:19.607Z,2.78
2018-08-03T02:07:32.001Z,2.78
2018-08-03T02:07:44.412Z,2.78
2018-08-03T02:07:56.867Z,2.78
2018-08-03T02:08:09.288Z,2.78
2018-08-03T02:08:21.690Z,2.78
2018-08-03T02:08:34.088Z,2.78
2018-08-03T02:08:46.517Z,2.78
2018-08-03T02:08:58.935Z,2.78
2018-08-03T02:09:11.392Z,2.78
2018-08-03T02:09:23.951Z,2.78
2018-08-03T02:09:36.370Z,2.78
2018-08-03T02:09:48.792Z,2.78
2018-08-03T02:10:01.200Z,2.78
2018-08-03T02:10:13.615Z,2.78
2018-08-03T02:10:26.029Z,2.78
2018-08-03T02:10:38.436Z,2.78
2018-08-03T02:10:50.822Z,2.78
2018-08-03T02:11:03.214Z,2.78
2018-08-03T02:11:15.615Z,2.78
2018-08-03T02:11:28.023Z,2.78
2018-08-03T02:11:40.473Z,2.78
2018-08-03T02:11:52.883Z,2.78
2018-08-03T02:12:05.342Z,2.78
2018-08-03T02:12:17.770Z,2.78
2018-08-03T02:12:30.188Z,2.78
2018-08-03T02:12:42.611Z,2.78
2018-08-03T02:12:55.030Z,2.78
2018-08-03T02:13:07.436Z,2.78
2018-08-03T02:13:19.861Z,2.78
2018-08-03T02:13:32.280Z,2.78
2018-08-03T02:13:44.691Z,2.78
2018-08-03T02:13:57.090Z,2.78
2018-08-03T02:14:09.500Z,2.78
2018-08-03T02:14:21.950Z,2.78
2018-08-03T02:14:34.384Z,2.78
2018-08-03T02:14:46.793Z,2.78
2018-08-03T02:14:59.358Z,2.78
2018-08-03T02:15:11.929Z,2.78
2018-08-03T02:15:24.339Z,2.78
2018-08-03T02:15:36.744Z,2.78
2018-08-03T02:15:49.157Z,2.78
2018-08-03T02:16:01.563Z,2.78
2018-08-03T02:16:13.988Z,2.78
2018-08-03T02:16:26.386Z,2.56
2018-08-03T02:16:38.803Z,2.56
2018-08-03T02:16:51.223Z,2.56
2018-08-03T02:17:03.640Z,2.56
2018-08-03T02:17:16.036Z,2.56
2018-08-03T02:17:28.466Z,2.56
2018-08-03T02:17:40.866Z,2.56
2018-08-03T02:17:53.340Z,2.56
2018-08-03T02:18:05.772Z,2.56
2018-08-03T02:18:18.221Z,2.56
2018-08-03T02:18:30.693Z,2.56
2018-08-03T02:18:43.143Z,2.56
2018-08-03T02:18:55.574Z,2.56
2018-08-03T02:19:07.986Z,2.56
2018-08-03T02:19:20.389Z,2.56
2018-08-03T02:19:32.790Z,2.56
2018-08-03T02:19:45.490Z,2.56
2018-08-03T02:19:58.041Z,2.56
2018-08-03T02:20:10.464Z,2.56
2018-08-03T02:20:22.865Z,2.56
2018-08-03T02:20:35.308Z,2.56
2018-08-03T02:20:47.718Z,2.56
2018-08-03T02:21:00.127Z,2.56
2018-08-03T02:21:12.814Z,2.56
2018-08-03T02:21:25.237Z,2.56
2018-08-03T02:21:37.662Z,2.56
2018-08-03T02:21:50.235Z,2.56
2018-08-03T02:22:02.621Z,2.56
2018-08-03T02:22:15.042Z,2.56
2018-08-03T02:22:27.439Z,2.56
2018-08-03T02:22:39.861Z,2.56
2018-08-03T02:22:52.297Z,2.56
2018-08-03T02:23:04.755Z,2.56
2018-08-03T02:23:17.146Z,2.56
2018-08-03T02:23:29.567Z,2.56
2018-08-03T02:23:42.025Z,2.56
2018-08-03T02:23:54.437Z,2.56
2018-08-03T02:24:06.833Z,2.56
2018-08-03T02:24:19.233Z,2.56
2018-08-03T02:24:31.716Z,2.56
2018-08-03T02:24:44.149Z,2.56
2018-08-03T02:24:56.573Z,2.56
2018-08-03T02:25:08.966Z,2.56
2018-08-03T02:25:21.384Z,2.56
2018-08-03T02:25:33.776Z,2.56
2018-08-03T02:25:46.197Z,2.56
2018-08-03T02:25:58.601Z,2.56
2018-08-03T02:26:11.293Z,2.56
2018-08-03T02:26:23.705Z,2.83
2018-08-03T02:26:36.188Z,2.83
2018-08-03T02:26:48.614Z,2.83
2018-08-03T02:27:01.035Z,2.83
2018-08-03T02:27:13.451Z,2.83
2018-08-03T02:27:25.870Z,2.83
2018-08-03T02:27:38.275Z,2.83
2018-08-03T02:27:50.701Z,2.83
2018-08-03T02:28:03.158Z,2.83
2018-08-03T02:28:15.569Z,2.83
2018-08-03T02:28:27.988Z,2.83
2018-08-03T02:28:40.404Z,2.83
2018-08-03T02:28:52.809Z,2.83
2018-08-03T02:29:05.279Z,2.83
2018-08-03T02:29:17.690Z,2.83
2018-08-03T02:29:30.105Z,2.83
2018-08-03T02:29:42.546Z,2.83
2018-08-03T02:29:54.979Z,2.83
2018-08-03T02:30:07.424Z,2.83
2018-08-03T02:30:19.891Z,2.83
2018-08-03T02:30:32.330Z,2.83
2018-08-03T02:30:44.772Z,2.83
2018-08-03T02:30:57.196Z,2.83
2018-08-03T02:31:09.626Z,2.83
2018-08-03T02:31:22.060Z,2.83
2018-08-03T02:31:34.492Z,2.83
2018-08-03T02:31:46.936Z,2.83
2018-08-03T02:31:59.477Z,2.83
2018-08-03T02:32:11.883Z,2.83
2018-08-03T02:32:24.313Z,2.83
2018-08-03T02:32:36.768Z,2.83
2018-08-03T02:32:49.214Z,2.83
2018-08-03T02:33:01.753Z,2.83
2018-08-03T02:33:14.281Z,2.83
2018-08-03T02:33:26.722Z,2.83
2018-08-03T02:33:39.195Z,2.83
2018-08-03T02:33:51.667Z,2.83
2018-08-03T02:34:04.163Z,2.83
2018-08-03T02:34:16.623Z,2.83
2018-08-03T02:34:29.083Z,2.83
2018-08-03T02:34:41.639Z,2.83
2018-08-03T02:34:54.067Z,2.83
2018-08-03T02:35:06.536Z,2.83
2018-08-03T02:35:18.991Z,2.83
2018-08-03T02:35:31.449Z,2.83
2018-08-03T02:35:43.897Z,2.83
2018-08-03T02:35:56.334Z,2.83
2018-08-03T02:36:08.805Z,2.83
2018-08-03T02:36:21.250Z,2.83
2018-08-03T02:36:33.677Z,3.76
2018-08-03T02:36:46.147Z,3.76
2018-08-03T02:36:58.644Z,3.76
2018-08-03T02:37:11.130Z,3.76
2018-08-03T02:37:23.573Z,3.76
2018-08-03T02:37:36.020Z,3.76
2018-08-03T02:37:48.509Z,3.76
2018-08-03T02:38:00.945Z,3.76
2018-08-03T02:38:13.381Z,3.76
2018-08-03T02:38:25.801Z,3.76
2018-08-03T02:38:38.214Z,3.76
2018-08-03T02:38:50.667Z,3.76
2018-08-03T02:39:03.105Z,3.76
2018-08-03T02:39:15.544Z,3.76
2018-08-03T02:39:27.963Z,3.76
2018-08-03T02:39:40.540Z,3.76
2018-08-03T02:39:53.019Z,3.76
2018-08-03T02:40:05.460Z,3.76
2018-08-03T02:40:17.954Z,3.76
2018-08-03T02:40:30.360Z,3.76
2018-08-03T02:40:42.871Z,3.76
2018-08-03T02:40:55.326Z,3.76
2018-08-03T02:41:07.759Z,3.76
2018-08-03T02:41:20.196Z,3.76
2018-08-03T02:41:32.651Z,3.76
2018-08-03T02:41:45.123Z,3.76
2018-08-03T02:41:57.568Z,3.76
2018-08-03T02:42:10.061Z,3.76
2018-08-03T02:42:22.468Z,3.76
2018-08-03T02:42:34.906Z,3.76
2018-08-03T02:42:47.341Z,3.76
2018-08-03T02:42:59.799Z,3.76
2018-08-03T02:43:12.628Z,3.76
2018-08-03T02:43:25.042Z,3.76
2018-08-03T02:43:37.471Z,3.76
2018-08-03T02:43:49.904Z,3.76
2018-08-03T02:44:02.336Z,3.76
2018-08-03T02:44:14.771Z,3.76
2018-08-03T02:44:27.215Z,3.76
2018-08-03T02:44:39.663Z,3.76
2018-08-03T02:44:52.125Z,3.76
2018-08-03T02:45:04.574Z,3.76
2018-08-03T02:45:16.998Z,3.76
2018-08-03T02:45:29.438Z,3.76
2018-08-03T02:45:41.852Z,3.76
2018-08-03T02:45:54.304Z,3.76
2018-08-03T02:46:06.734Z,3.76